createdAt,value
2022-09-07T00:01:12.582Z,67.43
2022-09-07T00:03:40.767Z,66.02
2022-09-07T00:06:13.006Z,60.67
2022-09-07T00:08:43.872Z,55.22
2022-09-07T00:11:18.475Z,54.24
2022-09-07T00:13:49.484Z,55.45
2022-09-07T00:16:30.422Z,57.17
2022-09-07T00:19:01.783Z,58.09
2022-09-07T00:21:30.686Z,59.57
2022-09-07T00:23:59.330Z,67.77
2022-09-07T00:26:33.963Z,68.52
2022-09-07T00:29:04.547Z,62.93
2022-09-07T00:31:34.854Z,56.27
2022-09-07T00:34:03.334Z,55.06
2022-09-07T00:36:31.301Z,56.62
2022-09-07T00:38:59.468Z,58.50
2022-09-07T00:41:27.613Z,59.96
2022-09-07T00:44:18.592Z,60.11
2022-09-07T00:46:47.121Z,68.91
2022-09-07T00:49:21.770Z,67.48
2022-09-07T00:51:57.979Z,61.99
2022-09-07T00:54:43.574Z,57.96
2022-09-07T00:57:12.934Z,53.38
2022-09-07T00:59:49.736Z,54.95
2022-09-07T01:02:19.125Z,57.76
2022-09-07T01:04:52.065Z,58.23
2022-09-07T01:07:20.607Z,59.16
2022-09-07T01:09:50.937Z,67.35
2022-09-07T01:12:18.716Z,68.30
2022-09-07T01:14:51.980Z,62.13
2022-09-07T01:17:42.217Z,55.89
2022-09-07T01:20:40.655Z,55.01
2022-09-07T01:23:27.918Z,56.57
2022-09-07T01:26:21.199Z,59.06
2022-09-07T01:28:57.642Z,61.66
2022-09-07T01:31:44.619Z,61.04
2022-09-07T01:34:25.881Z,73.62
2022-09-07T01:37:22.278Z,70.67
2022-09-07T01:40:06.092Z,63.86
2022-09-07T01:42:49.382Z,59.31
2022-09-07T01:45:24.370Z,55.21
2022-09-07T01:48:00.504Z,56.66
2022-09-07T01:50:54.219Z,58.01
2022-09-07T01:53:34.090Z,59.44
2022-09-07T01:56:36.329Z,68.05
2022-09-07T01:59:28.782Z,69.07
2022-09-07T02:02:24.270Z,62.47
2022-09-07T02:05:00.651Z,55.45
2022-09-07T02:07:40.359Z,55.03
2022-09-07T02:10:21.156Z,57.34
2022-09-07T02:13:18.175Z,59.31
2022-09-07T02:16:00.428Z,67.08
2022-09-07T02:18:37.684Z,67.48
2022-09-07T02:21:10.314Z,61.30
2022-09-07T02:23:57.139Z,55.56
2022-09-07T02:26:29.455Z,54.84
2022-09-07T02:28:58.325Z,57.52
2022-09-07T02:31:26.367Z,59.24
2022-09-07T02:33:54.399Z,60.58
2022-09-07T02:36:28.055Z,66.84
2022-09-07T02:38:56.256Z,65.35
2022-09-07T02:41:39.098Z,59.29
2022-09-07T02:44:18.444Z,53.36
2022-09-07T02:47:12.585Z,54.56
2022-09-07T02:50:17.470Z,56.29
2022-09-07T02:53:17.406Z,58.22
2022-09-07T02:56:12.974Z,60.01
2022-09-07T02:58:55.832Z,60.58
2022-09-07T03:01:56.356Z,69.67
2022-09-07T03:04:46.413Z,66.07
2022-09-07T03:07:24.189Z,60.34
2022-09-07T03:09:57.247Z,55.90
2022-09-07T03:12:25.639Z,56.30
2022-09-07T03:14:53.329Z,58.32
2022-09-07T03:17:21.098Z,59.57
2022-09-07T03:19:48.887Z,61.12
2022-09-07T03:22:16.606Z,69.03
2022-09-07T03:24:44.820Z,68.27
2022-09-07T03:27:12.597Z,61.49
2022-09-07T03:29:42.169Z,55.06
2022-09-07T03:32:10.064Z,54.13
2022-09-07T03:34:37.753Z,57.01
2022-09-07T03:37:05.588Z,58.06
2022-09-07T03:39:33.561Z,58.79
2022-09-07T03:42:01.231Z,66.67
2022-09-07T03:44:29.088Z,69.56
2022-09-07T03:46:57.231Z,63.93
2022-09-07T03:49:24.949Z,57.46
2022-09-07T03:51:52.690Z,55.16
2022-09-07T03:54:20.437Z,57.17
2022-09-07T03:56:48.445Z,59.04
2022-09-07T03:59:16.180Z,60.07
2022-09-07T04:01:44.302Z,67.07
2022-09-07T04:04:13.251Z,69.47
2022-09-07T04:06:41.102Z,64.50
2022-09-07T04:09:13.974Z,60.51
2022-09-07T04:11:42.504Z,55.26
2022-09-07T04:14:11.560Z,53.80
2022-09-07T04:16:39.671Z,56.63
2022-09-07T04:19:07.812Z,58.57
2022-09-07T04:21:35.829Z,63.73
2022-09-07T04:24:04.074Z,65.77
2022-09-07T04:26:35.642Z,63.64
2022-09-07T04:29:06.221Z,59.01
2022-09-07T04:31:35.486Z,53.93
2022-09-07T04:34:05.257Z,54.57
2022-09-07T04:36:33.797Z,56.98
2022-09-07T04:39:06.046Z,58.56
2022-09-07T04:41:35.190Z,60.70
2022-09-07T04:44:04.817Z,68.42
2022-09-07T04:46:37.921Z,67.29
2022-09-07T04:49:09.433Z,61.66
2022-09-07T04:51:39.564Z,56.01
2022-09-07T04:54:07.386Z,55.01
2022-09-07T04:56:35.414Z,57.28
2022-09-07T04:59:04.152Z,59.59
2022-09-07T05:01:32.059Z,65.89
2022-09-07T05:04:02.457Z,66.96
2022-09-07T05:06:30.813Z,62.62
2022-09-07T05:09:00.025Z,56.20
2022-09-07T05:11:29.868Z,55.33
2022-09-07T05:14:03.627Z,57.47
2022-09-07T05:16:32.199Z,59.16
2022-09-07T05:19:03.192Z,66.52
2022-09-07T05:21:34.394Z,69.18
2022-09-07T05:24:04.435Z,63.34
2022-09-07T05:26:36.376Z,60.35
2022-09-07T05:31:55.208Z,54.58
2022-09-07T05:34:31.882Z,58.25
2022-09-07T05:37:01.633Z,60.59
2022-09-07T05:39:30.731Z,68.34
2022-09-07T05:41:58.627Z,67.01
2022-09-07T05:47:10.706Z,56.90
2022-09-07T05:49:38.638Z,56.72
2022-09-07T05:52:06.993Z,58.20
2022-09-07T05:54:34.972Z,65.90
2022-09-07T05:57:03.763Z,66.77
2022-09-07T05:59:31.659Z,62.73
2022-09-07T06:02:00.569Z,56.81
2022-09-07T06:04:29.234Z,55.65
2022-09-07T06:07:20.721Z,57.04
2022-09-07T06:12:33.870Z,65.47
2022-09-07T06:15:02.138Z,64.19
2022-09-07T06:17:31.143Z,61.16
2022-09-07T06:19:59.084Z,56.41
2022-09-07T06:22:30.726Z,55.14
2022-09-07T06:24:59.610Z,56.94
2022-09-07T06:27:28.054Z,61.73
2022-09-07T06:29:55.980Z,64.78
2022-09-07T06:35:13.800Z,60.67
2022-09-07T06:37:42.592Z,55.74
2022-09-07T06:40:11.899Z,55.46
2022-09-07T06:42:39.822Z,59.03
2022-09-07T06:45:10.135Z,64.17
2022-09-07T06:47:37.933Z,63.39
2022-09-07T06:50:06.676Z,61.59
2022-09-07T06:55:28.025Z,56.53
2022-09-07T06:57:56.318Z,57.69
2022-09-07T07:00:24.223Z,62.31
2022-09-07T07:02:52.182Z,62.45
2022-09-07T07:05:20.013Z,60.54
2022-09-07T07:07:48.011Z,56.36
2022-09-07T07:10:17.851Z,55.36
2022-09-07T07:12:47.566Z,59.27
2022-09-07T07:15:15.420Z,62.35
2022-09-07T07:17:43.853Z,65.08
2022-09-07T07:20:12.142Z,63.12
2022-09-07T07:22:46.407Z,60.20
2022-09-07T07:25:15.530Z,54.97
2022-09-07T07:27:45.932Z,55.44
2022-09-07T07:30:17.290Z,57.77
2022-09-07T07:32:46.427Z,58.37
2022-09-07T07:35:15.077Z,60.47
2022-09-07T07:37:43.194Z,67.12
2022-09-07T07:42:46.258Z,61.46
2022-09-07T07:48:02.899Z,54.79
2022-09-07T07:50:31.634Z,56.35
2022-09-07T07:55:48.783Z,58.55
2022-09-07T07:58:16.958Z,66.60
2022-09-07T08:00:54.257Z,67.65
2022-09-07T08:03:25.478Z,59.76
2022-09-07T08:05:54.825Z,55.68
2022-09-07T08:08:24.108Z,56.65
2022-09-07T08:10:52.500Z,57.65
2022-09-07T08:13:21.387Z,59.16
2022-09-07T08:15:50.686Z,65.72
2022-09-07T08:18:18.904Z,66.22
2022-09-07T08:20:46.617Z,61.50
2022-09-07T08:23:15.430Z,55.39
2022-09-07T08:25:55.194Z,54.35
2022-09-07T08:28:23.666Z,56.37
2022-09-07T08:30:52.213Z,59.02
2022-09-07T08:33:20.684Z,61.14
2022-09-07T08:36:01.114Z,64.22
2022-09-07T08:38:31.794Z,65.01
2022-09-07T08:41:01.422Z,58.99
2022-09-07T08:43:49.090Z,54.65
2022-09-07T08:46:45.768Z,53.50
2022-09-07T08:49:22.069Z,59.47
2022-09-07T08:52:00.223Z,59.16
2022-09-07T08:54:29.372Z,63.14
2022-09-07T09:00:11.834Z,56.79
2022-09-07T09:02:43.772Z,55.84
2022-09-07T09:05:31.786Z,56.78
2022-09-07T09:08:27.267Z,60.48
2022-09-07T09:11:35.138Z,61.70
2022-09-07T09:14:24.445Z,62.51
2022-09-07T09:17:07.678Z,59.50
2022-09-07T09:20:00.276Z,54.71
2022-09-07T09:22:29.169Z,56.31
2022-09-07T09:25:30.340Z,59.46
2022-09-07T09:27:58.035Z,60.33
2022-09-07T09:30:27.300Z,59.30
2022-09-07T09:33:22.040Z,59.97
2022-09-07T09:35:54.371Z,60.91
2022-09-07T09:38:40.867Z,63.53
2022-09-07T09:41:15.273Z,64.32
2022-09-07T09:43:55.103Z,56.10
2022-09-07T09:46:37.050Z,53.66
2022-09-07T09:49:26.342Z,55.38
2022-09-07T09:54:52.631Z,56.79
2022-09-07T10:06:23.145Z,59.75
2022-09-07T10:09:02.503Z,60.61
2022-09-07T10:12:09.064Z,59.60
2022-09-07T10:14:44.582Z,60.38
2022-09-07T10:17:31.456Z,59.90
2022-09-07T10:20:21.894Z,60.29
2022-09-07T10:22:52.599Z,59.88
2022-09-07T10:25:31.621Z,59.57
2022-09-07T10:28:09.370Z,58.82
2022-09-07T10:30:46.147Z,58.25
2022-09-07T10:33:28.870Z,58.05
2022-09-07T10:36:08.846Z,58.23
2022-09-07T10:38:53.985Z,56.46
2022-09-07T10:41:51.313Z,58.50
2022-09-07T10:44:57.113Z,58.06
2022-09-07T10:48:10.323Z,57.07
2022-09-07T10:51:16.302Z,56.29
2022-09-07T10:57:37.286Z,54.26
2022-09-07T11:00:17.540Z,53.72
2022-09-07T11:03:37.354Z,53.11
2022-09-07T11:06:22.326Z,52.73
2022-09-07T11:09:21.964Z,52.77
2022-09-07T11:12:09.658Z,52.43
2022-09-07T11:14:48.137Z,52.32
2022-09-07T11:17:30.090Z,51.46
2022-09-07T11:20:13.858Z,52.52
2022-09-07T11:23:19.822Z,52.92
2022-09-07T11:26:03.506Z,52.71
2022-09-07T11:28:45.348Z,53.95
2022-09-07T11:31:43.596Z,54.52
2022-09-07T11:34:33.176Z,54.71
2022-09-07T11:37:12.130Z,54.17
2022-09-07T11:40:21.649Z,54.55
2022-09-07T11:42:59.709Z,55.16
2022-09-07T11:45:40.203Z,54.84
2022-09-07T11:48:22.297Z,54.44
2022-09-07T11:51:01.684Z,54.08
2022-09-07T11:53:36.622Z,54.41
2022-09-07T11:56:22.179Z,54.70
2022-09-07T11:59:11.450Z,54.46
2022-09-07T12:02:11.065Z,53.10
2022-09-07T12:05:16.222Z,52.12
2022-09-07T12:08:25.032Z,53.03
2022-09-07T12:11:08.393Z,53.42
2022-09-07T12:13:45.120Z,53.32
2022-09-07T12:16:40.169Z,52.71
2022-09-07T12:19:21.748Z,52.65
2022-09-07T12:21:52.570Z,52.59
2022-09-07T12:24:51.468Z,52.94
2022-09-07T12:27:22.265Z,52.11
2022-09-07T12:30:13.570Z,51.49
2022-09-07T12:32:55.296Z,51.69
2022-09-07T12:35:26.666Z,51.57
2022-09-07T12:37:56.575Z,51.22
2022-09-07T12:40:36.263Z,50.51
2022-09-07T12:43:13.060Z,50.88
2022-09-07T12:45:41.652Z,51.83
2022-09-07T12:48:46.858Z,51.79
2022-09-07T12:54:38.003Z,52.02
2022-09-07T12:57:38.048Z,51.46
2022-09-07T13:00:23.737Z,50.89
2022-09-07T13:09:40.092Z,47.94
2022-09-07T13:12:57.203Z,45.46
2022-09-07T13:15:49.011Z,45.23
2022-09-07T13:18:25.987Z,42.18
2022-09-07T13:21:09.046Z,42.76
2022-09-07T13:23:43.113Z,41.69
2022-09-07T13:26:57.518Z,42.47
2022-09-07T13:29:38.535Z,42.08
2022-09-07T13:35:25.329Z,40.63
2022-09-07T13:37:59.769Z,41.00
2022-09-07T13:40:32.450Z,40.30
2022-09-07T13:43:04.266Z,39.83
2022-09-07T13:46:04.538Z,37.16
2022-09-07T13:48:54.052Z,39.54
2022-09-07T13:51:47.271Z,39.62
2022-09-07T13:54:58.706Z,39.82
2022-09-07T13:57:39.645Z,39.96
2022-09-07T14:00:15.177Z,39.87
2022-09-07T14:02:43.561Z,38.57
2022-09-07T14:05:18.689Z,38.26
2022-09-07T14:07:48.724Z,36.44
2022-09-07T14:10:23.910Z,37.85
2022-09-07T14:12:54.447Z,38.28
2022-09-07T14:15:50.756Z,38.85
2022-09-07T14:18:29.872Z,38.58
2022-09-07T14:20:58.843Z,38.38
2022-09-07T14:23:35.007Z,38.25
2022-09-07T14:26:19.283Z,39.11
2022-09-07T14:28:54.230Z,38.95
2022-09-07T14:31:25.097Z,38.79
2022-09-07T14:33:59.517Z,39.91
2022-09-07T14:36:45.645Z,40.40
2022-09-07T14:39:17.728Z,40.25
2022-09-07T14:41:47.220Z,40.80
2022-09-07T14:44:43.024Z,41.12
2022-09-07T14:47:34.009Z,40.08
2022-09-07T14:50:06.290Z,39.42
2022-09-07T14:53:33.373Z,40.25
2022-09-07T14:55:40.338Z,40.98
2022-09-07T14:58:13.159Z,40.48
2022-09-07T15:03:42.459Z,40.26
2022-09-07T15:07:00.921Z,40.22
2022-09-07T15:08:59.785Z,40.79
2022-09-07T15:11:33.383Z,40.72
2022-09-07T15:14:08.739Z,40.57
2022-09-07T15:19:50.456Z,40.60
2022-09-07T15:22:19.309Z,40.13
2022-09-07T15:24:48.867Z,40.16
2022-09-07T15:27:27.203Z,39.99
2022-09-07T15:29:55.772Z,40.10
2022-09-07T15:32:24.354Z,40.04
2022-09-07T15:34:53.426Z,40.10
2022-09-07T15:40:26.400Z,37.49
2022-09-07T15:43:00.597Z,39.36
2022-09-07T15:45:28.655Z,39.11
2022-09-07T15:47:57.014Z,39.35
2022-09-07T15:50:25.125Z,39.00
2022-09-07T15:52:52.922Z,38.72
2022-09-07T15:55:22.230Z,38.33
2022-09-07T15:57:56.868Z,38.78
2022-09-07T16:00:27.959Z,38.48
2022-09-07T16:03:11.379Z,38.82
2022-09-07T16:05:44.893Z,38.34
2022-09-07T16:08:32.762Z,39.10
2022-09-07T16:11:18.520Z,39.21
2022-09-07T16:13:48.345Z,39.30
2022-09-07T16:16:16.422Z,39.16
2022-09-07T16:18:46.700Z,39.42
2022-09-07T16:21:16.760Z,39.72
2022-09-07T16:23:48.869Z,38.83
2022-09-07T16:26:21.247Z,39.54
2022-09-07T16:28:51.889Z,39.70
2022-09-07T16:31:28.094Z,39.27
2022-09-07T16:33:55.941Z,39.33
2022-09-07T16:36:24.169Z,39.14
2022-09-07T16:38:59.269Z,39.10
2022-09-07T16:41:33.113Z,40.09
2022-09-07T16:44:00.817Z,40.48
2022-09-07T16:46:35.332Z,39.59
2022-09-07T16:49:04.162Z,39.99
2022-09-07T16:51:31.819Z,40.11
2022-09-07T16:54:00.330Z,40.46
2022-09-07T16:56:33.658Z,41.27
2022-09-07T16:59:08.645Z,42.91
2022-09-07T17:01:38.062Z,43.14
2022-09-07T17:04:11.233Z,43.75
2022-09-07T17:06:40.735Z,44.57
2022-09-07T17:09:09.011Z,47.71
2022-09-07T17:11:37.717Z,48.49
2022-09-07T17:14:06.701Z,49.17
2022-09-07T17:16:38.907Z,49.10
2022-09-07T17:22:00.358Z,49.31
2022-09-07T17:24:29.627Z,50.13
2022-09-07T17:27:00.588Z,50.05
2022-09-07T17:29:30.639Z,50.72
2022-09-07T17:34:47.870Z,51.58
2022-09-07T17:37:15.902Z,52.69
2022-09-07T17:39:44.380Z,53.43
2022-09-07T17:42:12.769Z,53.84
2022-09-07T17:44:40.502Z,54.49
2022-09-07T17:47:08.325Z,55.01
2022-09-07T17:49:36.318Z,55.73
2022-09-07T17:52:04.341Z,55.78
2022-09-07T17:54:32.963Z,56.25
2022-09-07T17:57:00.716Z,56.57
2022-09-07T18:02:16.415Z,56.54
2022-09-07T18:04:44.136Z,57.05
2022-09-07T18:07:12.176Z,57.32
2022-09-07T18:09:40.460Z,57.59
2022-09-07T18:12:08.549Z,58.82
2022-09-07T18:14:36.298Z,58.79
2022-09-07T18:17:05.592Z,58.23
2022-09-07T18:19:33.539Z,58.59
2022-09-07T18:22:03.873Z,58.78
2022-09-07T18:24:32.146Z,58.97
2022-09-07T18:26:59.991Z,59.26
2022-09-07T18:29:31.085Z,59.56
2022-09-07T18:32:05.715Z,59.39
2022-09-07T18:34:37.105Z,59.33
2022-09-07T18:37:06.669Z,59.99
2022-09-07T18:39:35.791Z,60.42
2022-09-07T18:42:04.322Z,67.30
2022-09-07T18:47:27.895Z,64.27
2022-09-07T18:49:57.337Z,55.77
2022-09-07T18:55:14.507Z,53.32
2022-09-07T18:57:42.741Z,54.75
2022-09-07T19:00:13.328Z,56.49
2022-09-07T19:02:41.506Z,56.92
2022-09-07T19:07:59.765Z,59.35
2022-09-07T19:10:27.756Z,59.88
2022-09-07T19:12:56.271Z,60.60
2022-09-07T19:15:24.186Z,66.64
2022-09-07T19:17:52.063Z,68.36
2022-09-07T19:20:20.249Z,61.75
2022-09-07T19:22:48.332Z,53.47
2022-09-07T19:25:17.404Z,51.08
2022-09-07T19:27:45.813Z,52.03
2022-09-07T19:30:15.273Z,52.82
2022-09-07T19:32:43.640Z,54.30
2022-09-07T19:35:11.374Z,55.22
2022-09-07T19:37:39.381Z,56.15
2022-09-07T19:40:14.766Z,58.29
2022-09-07T19:42:46.565Z,58.31
2022-09-07T19:45:15.298Z,58.94
2022-09-07T19:47:43.104Z,59.69
2022-09-07T19:50:11.622Z,60.23
2022-09-07T19:52:39.286Z,60.42
2022-09-07T19:55:08.225Z,60.80
2022-09-07T19:57:35.968Z,61.22
2022-09-07T20:00:05.474Z,66.60
2022-09-07T20:02:33.464Z,66.92
2022-09-07T20:05:01.157Z,60.48
2022-09-07T20:07:28.810Z,53.13
2022-09-07T20:09:57.068Z,52.11
2022-09-07T20:12:24.871Z,53.23
2022-09-07T20:14:52.484Z,54.16
2022-09-07T20:17:20.213Z,55.08
2022-09-07T20:19:47.924Z,57.40
2022-09-07T20:22:15.603Z,58.87
2022-09-07T20:24:43.858Z,60.12
2022-09-07T20:27:11.521Z,66.52
2022-09-07T20:29:39.436Z,68.25
2022-09-07T20:32:07.138Z,63.36
2022-09-07T20:34:35.043Z,55.88
2022-09-07T20:37:02.702Z,54.43
2022-09-07T20:39:30.485Z,55.94
2022-09-07T20:41:59.135Z,57.20
2022-09-07T20:44:27.316Z,58.80
2022-09-07T20:46:55.241Z,59.64
2022-09-07T20:49:23.025Z,60.21
2022-09-07T20:51:50.817Z,66.48
2022-09-07T20:54:18.869Z,67.53
2022-09-07T20:56:46.804Z,62.91
2022-09-07T20:59:15.334Z,55.59
2022-09-07T21:01:43.165Z,53.92
2022-09-07T21:04:11.089Z,55.16
2022-09-07T21:06:38.815Z,56.52
2022-09-07T21:09:06.502Z,57.92
2022-09-07T21:11:36.893Z,58.19
2022-09-07T21:14:12.560Z,59.12
2022-09-07T21:16:40.965Z,60.63
2022-09-07T21:19:12.882Z,67.40
2022-09-07T21:21:42.861Z,67.35
2022-09-07T21:24:21.276Z,61.11
2022-09-07T21:26:50.835Z,54.73
2022-09-07T21:29:24.408Z,53.65
2022-09-07T21:31:55.834Z,54.55
2022-09-07T21:34:24.004Z,55.43
2022-09-07T21:36:52.905Z,57.84
2022-09-07T21:39:21.612Z,58.50
2022-09-07T21:41:49.304Z,59.20
2022-09-07T21:44:17.403Z,60.70
2022-09-07T21:46:45.650Z,67.74
2022-09-07T21:49:13.759Z,66.33
2022-09-07T21:51:41.482Z,60.52
2022-09-07T21:54:09.603Z,54.41
2022-09-07T21:56:37.266Z,53.36
2022-09-07T21:59:05.201Z,54.90
2022-09-07T22:01:33.116Z,56.81
2022-09-07T22:04:05.202Z,58.68
2022-09-07T22:06:34.542Z,59.64
2022-09-07T22:09:05.130Z,60.01
2022-09-07T22:11:33.261Z,67.69
2022-09-07T22:14:04.884Z,68.40
2022-09-07T22:16:34.590Z,62.30
2022-09-07T22:19:02.863Z,57.35
2022-09-07T22:21:31.698Z,54.51
2022-09-07T22:24:03.947Z,55.30
2022-09-07T22:26:39.951Z,56.77
2022-09-07T22:29:11.081Z,58.18
2022-09-07T22:31:41.181Z,58.91
2022-09-07T22:34:10.442Z,59.46
2022-09-07T22:36:44.629Z,59.67
2022-09-07T22:39:16.856Z,60.90
2022-09-07T22:41:47.576Z,67.83
2022-09-07T22:44:18.236Z,66.80
2022-09-07T22:46:47.567Z,60.67
2022-09-07T22:49:17.182Z,55.23
2022-09-07T22:51:47.382Z,54.57
2022-09-07T22:54:15.106Z,56.19
2022-09-07T22:56:43.222Z,57.39
2022-09-07T22:59:13.317Z,58.78
2022-09-07T23:01:41.918Z,59.46
2022-09-07T23:04:11.177Z,60.54
2022-09-07T23:06:42.665Z,66.40
2022-09-07T23:09:17.607Z,66.48
2022-09-07T23:11:48.137Z,60.17
2022-09-07T23:14:24.629Z,53.74
2022-09-07T23:16:52.655Z,53.35
2022-09-07T23:19:20.991Z,54.85
2022-09-07T23:21:49.209Z,56.48
2022-09-07T23:24:19.120Z,58.81
2022-09-07T23:26:47.702Z,59.54
2022-09-07T23:29:16.564Z,60.86
2022-09-07T23:31:46.499Z,66.51
2022-09-07T23:34:14.459Z,67.79
2022-09-07T23:36:42.197Z,61.65
2022-09-07T23:39:10.297Z,55.36
2022-09-07T23:41:39.198Z,53.36
2022-09-07T23:44:07.010Z,54.40
2022-09-07T23:46:34.688Z,55.94
2022-09-07T23:49:02.430Z,57.09
2022-09-07T23:51:30.094Z,58.36
2022-09-07T23:53:57.791Z,59.64
2022-09-07T23:56:26.042Z,60.51
2022-09-07T23:58:53.706Z,64.57
